This is the latest recevied weather packets stored in our database for station/object AD4CG. If no packets are shown the sender has not sent any weather packets the latest 1 day(s).
| Time | Temp. | Humidity | Pressure | Rain* | Wind** | Luminosity | Snow |
|---|---|---|---|---|---|---|---|
| 1778051127 | 15.56° C | 100% | 1015.6 hPa | 0 mm | 0 m/s | - | - |
| 1778048236 | 16.11° C | 100% | 1015.9 hPa | 0 mm | 0.45 m/s, 255° | - | - |
| 1778047909 | 16.11° C | 100% | 1015.9 hPa | 0 mm | 1.34 m/s, 255° | - | - |
| 1778042775 | 17.22° C | 95% | 1016.9 hPa | 0 mm | 0.89 m/s, 215° | - | - |
| 1778040869 | 17.78° C | 100% | 1016.9 hPa | 0 mm | 0 m/s | - | - |
| 1778039901 | 17.78° C | 92% | 1016.9 hPa | 0 mm | 0.45 m/s, 215° | - | - |
| 1778039573 | 17.78° C | 91% | 1016.9 hPa | 0 mm | 1.34 m/s, 233° | - | - |
| 1778039244 | 17.78° C | 91% | 1017.3 hPa | 0 mm | 0.89 m/s, 118° | - | - |
| 1778038605 | 18.33° C | 90% | 1016.9 hPa | 0 mm | 1.79 m/s, 221° | - | - |
| 1778037311 | 18.33° C | 88% | 1017.3 hPa | 0 mm | 0.89 m/s, 131° | - | - |
| 1778035421 | 18.89° C | 83% | 1017.3 hPa | 0 mm | 2.68 m/s, 161° | - | - |
| 1778033505 | 19.44° C | 78% | 1016.9 hPa | 0 mm | 0.89 m/s, 228° | - | - |
| 1778032237 | 19.44° C | 70% | 1016.6 hPa | 0 mm | 0.45 m/s, 144° | - | - |
| 1778031909 | 20° C | 70% | 1016.6 hPa | 0 mm | 0.89 m/s, 30° | - | - |
| 1778025318 | 22.78° C | 49% | 1015.2 hPa | 0 mm | 0.89 m/s, 133° | - | - |
| 1778024348 | 23.33° C | 46% | 1015.2 hPa | 0 mm | 0.89 m/s, 231° | - | - |
| 1778023397 | 23.33° C | 42% | 1015.2 hPa | 0 mm | 0.89 m/s, 241° | - | - |
| 1778023067 | 23.89° C | 39% | 1014.9 hPa | 0 mm | 0.89 m/s, 94° | - | - |
| 1778019295 | 25.56° C | 35% | 1015.2 hPa | 0 mm | 3.13 m/s, 203° | - | - |
| 1778017683 | 26.11° C | 31% | 1015.2 hPa | 0 mm | 2.24 m/s, 150° | - | - |
| 1778017358 | 26.11° C | 33% | 1015.2 hPa | 0 mm | 1.79 m/s, 242° | - | - |
| 1778016707 | 26.11° C | 33% | 1015.2 hPa | 0 mm | 1.34 m/s, 229° | - | - |
| 1778015129 | 26.11° C | 34% | 1015.2 hPa | 0 mm | 2.68 m/s, 269° | - | - |
| 1778014797 | 26.11° C | 31% | 1015.2 hPa | 0 mm | 0.89 m/s, 237° | - | - |
| 1778013533 | 26.11° C | 30% | 1015.6 hPa | 0 mm | 3.58 m/s, 240° | - | - |
* Rain latest hour (hover to see other rain measurements)
** Current wind speed in m/s (hover to see current wind gust speed)